PDT,Max TemperatureF,Mean TemperatureF,Min TemperatureF,Max Dew PointF,MeanDew PointF,Min DewpointF,Max Humidity, Mean Humidity, Min Humidity, Max Sea Level PressureIn, Mean Sea Level PressureIn, Min Sea Level PressureIn, Max VisibilityMiles, Mean VisibilityMiles, Min VisibilityMiles, Max Wind SpeedMPH, Mean Wind SpeedMPH, Max Gust SpeedMPH,PrecipitationIn, CloudCover, Events, WindDirDegrees
2011-10-1,84,70,56,54,52,51,86,60,34,30.02,29.96,29.91,10,10,10,13,7,15,0.00,0,,308
2011-10-2,82,69,56,55,53,49,93,64,34,30.05,29.99,29.93,10,10,7,12,5,15,0.00,0,,303
2011-10-3,76,66,55,51,48,42,80,58,36,29.96,29.91,29.86,10,10,10,16,7,20,0.00,0,,307
2011-10-4,73,65,57,53,50,44,80,62,44,29.94,29.88,29.80,10,10,6,12,4,14,0.00,5,Rain,303
2011-10-5,67,61,54,55,50,43,93,71,48,29.89,29.79,29.68,10,8,2,24,13,31,0.74,7,Rain-Thunderstorm,250
2011-10-6,63,55,46,50,46,42,93,71,48,30.05,29.96,29.89,10,10,5,14,1,17,0.02,3,Rain,309
2011-10-7,69,58,46,50,47,42,100,70,39,30.17,30.12,30.06,10,7,0,9,3,14,0.01,2,Fog,306
2011-10-8,73,61,48,54,48,45,93,67,41,30.14,30.08,30.00,10,10,5,9,2,12,0.00,0,,314
2011-10-9,76,64,51,54,50,47,89,64,38,30.04,29.98,29.90,10,9,4,9,2,13,0.00,0,,274
2011-10-10,79,65,51,60,53,50,93,66,39,30.00,29.96,29.93,10,8,3,10,2,14,0.00,3,,307
2011-10-11,82,71,59,61,58,56,97,71,45,30.04,30.00,29.96,10,10,4,20,9,24,0.00,0,,316
2011-10-12,81,69,56,58,56,55,100,73,45,30.09,30.02,29.95,10,9,5,9,4,,0.00,0,,303
2011-10-13,85,70,55,61,56,51,93,64,34,29.99,29.91,29.82,10,9,7,8,2,16,0.00,0,,272
2011-10-14,86,72,58,63,59,55,93,67,40,29.87,29.82,29.78,10,8,4,7,2,9,0.00,0,,183
2011-10-15,89,73,57,62,58,55,93,65,36,29.90,29.84,29.82,10,7,2,7,1,9,0.00,0,,292
2011-10-16,82,70,57,59,57,55,93,67,40,30.05,29.98,29.91,10,9,6,12,7,15,0.00,0,,311
2011-10-17,82,68,53,61,56,52,93,67,40,30.12,30.05,30.00,10,7,2,8,2,10,0.00,0,,246
2011-10-18,87,72,56,63,56,53,86,60,34,30.05,29.98,29.89,10,8,5,9,3,13,0.00,0,,253
2011-10-19,78,68,58,55,54,52,86,63,40,29.98,29.94,29.91,10,8,5,15,9,17,0.00,0,,306
2011-10-20,81,66,51,58,54,50,93,68,42,30.03,29.98,29.93,10,7,2,9,3,13,0.00,0,,291
2011-10-21,80,65,50,57,53,50,96,69,42,30.14,30.08,30.04,10,7,1,12,4,15,0.00,0,,300
2011-10-22,83,69,54,58,54,51,100,69,37,30.13,30.07,29.99,10,6,1,7,2,9,0.00,0,,282
2011-10-23,85,69,53,58,54,48,86,59,32,30.01,29.96,29.89,10,8,4,6,3,9,0.00,0,,48
2011-10-24,84,69,53,56,52,49,89,62,34,29.98,29.94,29.90,10,8,4,6,1,,0.00,0,,262
2011-10-25,73,62,51,52,49,43,89,61,33,30.04,30.00,29.97,10,7,2,13,7,,0.00,0,,307
2011-10-26,70,57,43,45,42,38,93,65,36,30.12,30.06,30.01,10,10,8,12,6,14,0.00,0,,303
2011-10-27,75,60,45,45,40,27,86,52,17,30.09,30.05,30.00,10,9,5,8,3,10,0.00,0,,195
2011-10-28,76,59,42,46,41,38,82,55,27,30.14,30.09,30.05,10,8,6,9,3,13,0.00,0,,269
2011-10-29,75,59,42,48,43,38,89,61,33,30.16,30.10,30.05,10,8,5,9,1,12,0.00,0,,38
2011-10-30,78,62,45,48,44,41,82,55,27,30.13,30.08,30.02,10,9,6,6,4,8,0.00,0,,155
2011-10-31,78,63,47,52,45,41,82,57,31,30.07,30.01,29.95,10,8,4,8,2,10,0.00,0,,316